Time;durP1;ratioP1;P1;durP2;ratioP2;P2;SDS_P1;SDS_P2;PMS_P1;PMS_P2;Temp;Humidity;BMP_temperature;BMP_pressure;BME280_temperature;BME280_humidity;BME280_pressure;Samples;Min_cycle;Max_cycle;Signal;HPM_P1;HPM_P2
2023/11/12 00:00:51;;;;;;;8.03;5.73;;;;;;;;;;5045817;28;20932;-67
2023/11/12 00:03:16;;;;;;;8.03;6.13;;;;;;;;;;5040557;28;20221;-67
2023/11/12 00:05:41;;;;;;;8.00;5.93;;;;;;;;;;5041212;28;20640;-67
2023/11/12 00:08:07;;;;;;;6.83;6.07;;;;;;;;;;5038314;28;20240;-67
2023/11/12 00:10:32;;;;;;;9.20;6.30;;;;;;;;;;5035829;28;20209;-67
2023/11/12 00:12:59;;;;;;;8.60;6.17;;;;;;;;;;5050699;28;20200;-67
2023/11/12 00:15:24;;;;;;;9.30;6.30;;;;;;;;;;5035803;28;20703;-67
2023/11/12 00:17:50;;;;;;;7.30;5.60;;;;;;;;;;5045259;28;20182;-67
2023/11/12 00:20:15;;;;;;;9.17;6.30;;;;;;;;;;5029546;28;20600;-66
2023/11/12 00:22:43;;;;;;;8.30;6.30;;;;;;;;;;5033800;28;20185;-66
2023/11/12 00:25:10;;;;;;;8.63;6.03;;;;;;;;;;5035363;28;20612;-66
2023/11/12 00:27:35;;;;;;;9.07;6.43;;;;;;;;;;5052020;28;20174;-67
2023/11/12 00:30:00;;;;;;;8.10;5.80;;;;;;;;;;5052483;28;20169;-67
2023/11/12 00:32:26;;;;;;;11.77;5.73;;;;;;;;;;5043446;28;20201;-67
2023/11/12 00:34:52;;;;;;;9.60;6.27;;;;;;;;;;5048613;28;20209;-68
2023/11/12 00:37:18;;;;;;;8.70;5.73;;;;;;;;;;5030858;28;20555;-66
2023/11/12 00:39:43;;;;;;;8.33;5.33;;;;;;;;;;5050651;28;20669;-67
2023/11/12 00:42:08;;;;;;;9.33;6.23;;;;;;;;;;5048259;28;20196;-67
2023/11/12 00:44:35;;;;;;;7.67;5.77;;;;;;;;;;5052008;28;20177;-67
2023/11/12 00:47:00;;;;;;;6.73;5.30;;;;;;;;;;5041595;28;20260;-67
2023/11/12 00:49:26;;;;;;;5.90;5.20;;;;;;;;;;5055632;28;20300;-66
2023/11/12 00:51:51;;;;;;;6.77;5.20;;;;;;;;;;5051215;28;20243;-66
2023/11/12 00:54:16;;;;;;;7.17;5.23;;;;;;;;;;5052933;28;20207;-67
2023/11/12 00:56:41;;;;;;;7.53;5.37;;;;;;;;;;5050508;28;20661;-66
2023/11/12 00:59:08;;;;;;;6.90;5.00;;;;;;;;;;5049751;28;20541;-67
2023/11/12 01:01:34;;;;;;;9.90;5.90;;;;;;;;;;5049482;28;20206;-67
2023/11/12 01:04:00;;;;;;;7.93;6.20;;;;;;;;;;5046527;28;20657;-66
2023/11/12 01:06:26;;;;;;;7.60;5.43;;;;;;;;;;5050051;28;20204;-66
2023/11/12 01:08:51;;;;;;;7.73;5.20;;;;;;;;;;5050463;28;20169;-67
2023/11/12 01:11:16;;;;;;;11.10;7.70;;;;;;;;;;5050435;28;20197;-67
2023/11/12 01:13:41;;;;;;;8.43;6.60;;;;;;;;;;5050244;28;20228;-67
2023/11/12 01:16:06;;;;;;;9.53;6.50;;;;;;;;;;5045535;28;20324;-67
2023/11/12 01:18:33;;;;;;;8.57;6.07;;;;;;;;;;5049572;28;20687;-67
2023/11/12 01:20:59;;;;;;;9.13;6.17;;;;;;;;;;5049563;28;20201;-67
2023/11/12 01:23:24;;;;;;;9.47;6.50;;;;;;;;;;5050360;28;20174;-67
2023/11/12 01:25:49;;;;;;;8.50;6.13;;;;;;;;;;5050314;28;20599;-66
2023/11/12 01:28:14;;;;;;;10.07;6.63;;;;;;;;;;5050833;28;20189;-66
2023/11/12 01:30:40;;;;;;;8.47;6.27;;;;;;;;;;5050593;28;20214;-67
2023/11/12 01:33:06;;;;;;;12.80;7.00;;;;;;;;;;5048456;28;20204;-66
2023/11/12 01:35:32;;;;;;;9.37;6.60;;;;;;;;;;5049701;28;20227;-66
2023/11/12 01:37:58;;;;;;;9.80;6.17;;;;;;;;;;5050532;28;20645;-67
2023/11/12 01:40:24;;;;;;;9.63;7.47;;;;;;;;;;5053421;28;20186;-68
2023/11/12 01:42:50;;;;;;;9.83;6.67;;;;;;;;;;5032542;28;20186;-67
2023/11/12 01:45:15;;;;;;;11.90;6.37;;;;;;;;;;5049100;28;20771;-67
2023/11/12 01:47:44;;;;;;;9.07;6.47;;;;;;;;;;5049604;28;20174;-67
2023/11/12 01:50:10;;;;;;;9.57;6.00;;;;;;;;;;5054107;28;20184;-67
2023/11/12 01:52:36;;;;;;;9.00;5.90;;;;;;;;;;5049814;28;20189;-67
2023/11/12 01:55:03;;;;;;;9.83;6.83;;;;;;;;;;5050602;28;20173;-66
2023/11/12 01:57:28;;;;;;;8.93;6.23;;;;;;;;;;5052727;28;20185;-67
2023/11/12 01:59:54;;;;;;;9.87;5.67;;;;;;;;;;5051125;28;20645;-68
2023/11/12 02:02:20;;;;;;;7.53;5.43;;;;;;;;;;5052062;28;20201;-66
2023/11/12 02:04:48;;;;;;;6.23;5.17;;;;;;;;;;5051528;28;20535;-65
2023/11/12 02:07:13;;;;;;;7.47;5.73;;;;;;;;;;5049700;28;20216;-66
2023/11/12 02:09:39;;;;;;;8.13;5.10;;;;;;;;;;5055125;28;20854;-66
2023/11/12 02:12:04;;;;;;;7.03;5.60;;;;;;;;;;5035153;28;20198;-66
2023/11/12 02:14:31;;;;;;;8.60;6.10;;;;;;;;;;5053223;28;20201;-66
2023/11/12 02:16:57;;;;;;;7.70;5.97;;;;;;;;;;5035952;28;20672;-66
2023/11/12 02:19:29;;;;;;;9.13;6.00;;;;;;;;;;5053851;28;20170;-66
2023/11/12 02:21:54;;;;;;;9.30;6.97;;;;;;;;;;5050691;28;20186;-66
2023/11/12 02:24:20;;;;;;;11.70;6.07;;;;;;;;;;5047529;28;20186;-66
2023/11/12 02:26:46;;;;;;;6.90;5.57;;;;;;;;;;5056966;28;20223;-67
2023/11/12 02:29:12;;;;;;;9.43;5.77;;;;;;;;;;5052827;28;20260;-66
2023/11/12 02:31:37;;;;;;;6.73;5.77;;;;;;;;;;5051006;28;20651;-65
2023/11/12 02:34:03;;;;;;;8.93;6.20;;;;;;;;;;5052677;28;20209;-66
2023/11/12 02:36:28;;;;;;;11.03;6.20;;;;;;;;;;5055407;28;20180;-66
2023/11/12 02:38:54;;;;;;;16.87;7.63;;;;;;;;;;5036973;28;20255;-65
2023/11/12 02:41:20;;;;;;;15.43;7.67;;;;;;;;;;5051599;28;20204;-65
2023/11/12 02:43:46;;;;;;;10.83;7.13;;;;;;;;;;5048966;28;20182;-66
2023/11/12 02:46:12;;;;;;;11.33;6.50;;;;;;;;;;5049745;28;20915;-66
2023/11/12 02:48:56;;;;;;;12.67;7.43;;;;;;;;;;5047620;28;20556;-66
2023/11/12 02:51:21;;;;;;;10.37;5.73;;;;;;;;;;5047045;28;20636;-66
2023/11/12 02:53:47;;;;;;;8.77;5.50;;;;;;;;;;5050753;28;20198;-66
2023/11/12 02:56:12;;;;;;;7.23;4.57;;;;;;;;;;5052366;28;20177;-67
2023/11/12 02:58:37;;;;;;;6.93;5.57;;;;;;;;;;5049813;28;20872;-65
2023/11/12 03:01:03;;;;;;;7.57;5.47;;;;;;;;;;5046784;28;20717;-65
2023/11/12 03:03:28;;;;;;;6.00;4.83;;;;;;;;;;5048323;28;20221;-65
2023/11/12 03:05:54;;;;;;;7.93;5.40;;;;;;;;;;5031850;28;20182;-65
2023/11/12 03:08:21;;;;;;;6.90;5.10;;;;;;;;;;5049439;28;20561;-65
2023/11/12 03:10:46;;;;;;;7.30;5.63;;;;;;;;;;5049540;28;20208;-67
2023/11/12 03:13:11;;;;;;;16.47;5.93;;;;;;;;;;5051707;28;20206;-66
2023/11/12 03:15:36;;;;;;;7.20;5.47;;;;;;;;;;5025330;28;20238;-67
2023/11/12 03:18:03;;;;;;;7.83;6.17;;;;;;;;;;5047543;28;20265;-66
2023/11/12 03:20:28;;;;;;;10.77;7.53;;;;;;;;;;5045055;28;20224;-66
2023/11/12 03:22:53;;;;;;;9.70;7.70;;;;;;;;;;5051725;28;20170;-67
2023/11/12 03:25:19;;;;;;;13.30;7.97;;;;;;;;;;5051781;28;20173;-65
2023/11/12 03:27:44;;;;;;;11.90;7.40;;;;;;;;;;5049988;28;20169;-65
2023/11/12 03:30:09;;;;;;;11.47;7.47;;;;;;;;;;5051478;28;20610;-65
2023/11/12 03:32:34;;;;;;;10.87;7.50;;;;;;;;;;5049831;28;20192;-65
2023/11/12 03:35:00;;;;;;;11.10;7.90;;;;;;;;;;5052326;28;20213;-66
2023/11/12 03:37:25;;;;;;;14.57;8.50;;;;;;;;;;5049289;28;20636;-65
2023/11/12 03:39:51;;;;;;;13.77;8.90;;;;;;;;;;5044786;28;20193;-65
2023/11/12 03:42:16;;;;;;;11.57;8.90;;;;;;;;;;5046917;28;20202;-66
2023/11/12 03:44:46;;;;;;;12.23;9.00;;;;;;;;;;5050159;28;20209;-65
2023/11/12 03:47:12;;;;;;;11.47;8.57;;;;;;;;;;5050832;28;20192;-65
2023/11/12 03:49:39;;;;;;;13.33;7.87;;;;;;;;;;5050649;28;20177;-65
2023/11/12 03:52:05;;;;;;;13.73;9.30;;;;;;;;;;5049942;28;20332;-66
2023/11/12 03:54:30;;;;;;;13.77;8.83;;;;;;;;;;5050911;28;20284;-65
2023/11/12 03:56:55;;;;;;;11.90;8.03;;;;;;;;;;5044193;28;20182;-66
2023/11/12 03:59:20;;;;;;;10.13;7.77;;;;;;;;;;5049284;28;20182;-65
2023/11/12 04:01:45;;;;;;;12.20;7.93;;;;;;;;;;5043756;28;20649;-65
2023/11/12 04:04:11;;;;;;;13.13;8.83;;;;;;;;;;5046632;28;20193;-65
2023/11/12 04:06:37;;;;;;;21.33;9.37;;;;;;;;;;5049573;28;20177;-66
2023/11/12 04:09:02;;;;;;;10.43;8.53;;;;;;;;;;5050210;28;20202;-66
2023/11/12 04:11:27;;;;;;;13.00;9.23;;;;;;;;;;5053908;28;20201;-66
2023/11/12 04:13:52;;;;;;;13.90;9.63;;;;;;;;;;5052548;28;20583;-66
2023/11/12 04:16:18;;;;;;;10.97;8.33;;;;;;;;;;5049350;28;20563;-66
2023/11/12 04:18:43;;;;;;;14.07;9.97;;;;;;;;;;5052234;28;20173;-65
2023/11/12 04:21:10;;;;;;;10.13;8.20;;;;;;;;;;5053128;28;20259;-65
2023/11/12 04:23:35;;;;;;;14.00;9.43;;;;;;;;;;5032190;28;20186;-65
2023/11/12 04:26:01;;;;;;;12.67;9.50;;;;;;;;;;5049758;28;20181;-66
2023/11/12 04:28:27;;;;;;;13.67;10.50;;;;;;;;;;5049722;28;20178;-64
2023/11/12 04:30:52;;;;;;;12.87;9.73;;;;;;;;;;5049262;28;20578;-65
2023/11/12 04:33:19;;;;;;;17.30;10.40;;;;;;;;;;5047606;28;20201;-65
2023/11/12 04:35:46;;;;;;;16.73;9.67;;;;;;;;;;5050226;28;20178;-65
2023/11/12 04:38:11;;;;;;;16.27;10.20;;;;;;;;;;5049420;28;20196;-65
2023/11/12 04:40:36;;;;;;;17.73;10.50;;;;;;;;;;5045689;28;20676;-64
2023/11/12 04:43:02;;;;;;;12.73;9.30;;;;;;;;;;5048908;28;20182;-65
2023/11/12 04:45:27;;;;;;;14.20;10.33;;;;;;;;;;5044122;28;20182;-65
2023/11/12 04:47:52;;;;;;;14.83;9.50;;;;;;;;;;5049621;28;20196;-64
2023/11/12 04:50:17;;;;;;;14.80;10.37;;;;;;;;;;5048824;28;20177;-65
2023/11/12 04:52:42;;;;;;;16.43;9.70;;;;;;;;;;5045354;28;20174;-65
2023/11/12 04:55:08;;;;;;;13.43;9.63;;;;;;;;;;5050338;28;20173;-66
2023/11/12 04:57:33;;;;;;;15.47;9.83;;;;;;;;;;5049276;28;20169;-65
2023/11/12 04:59:58;;;;;;;16.07;10.83;;;;;;;;;;5042549;28;20174;-65
2023/11/12 05:02:23;;;;;;;13.30;9.50;;;;;;;;;;5045607;28;20268;-65
2023/11/12 05:04:48;;;;;;;15.47;9.70;;;;;;;;;;5048588;28;20660;-65
2023/11/12 05:07:14;;;;;;;13.50;9.13;;;;;;;;;;5049778;28;20200;-64
2023/11/12 05:09:39;;;;;;;11.47;9.30;;;;;;;;;;5032250;28;20268;-64
2023/11/12 05:12:05;;;;;;;14.83;9.80;;;;;;;;;;5031526;28;20197;-65
2023/11/12 05:14:30;;;;;;;14.13;10.17;;;;;;;;;;5049644;28;20691;-65
2023/11/12 05:16:55;;;;;;;11.77;9.07;;;;;;;;;;5050449;28;20219;-64
2023/11/12 05:19:21;;;;;;;15.67;10.57;;;;;;;;;;5049111;28;20166;-65
2023/11/12 05:21:46;;;;;;;16.63;10.77;;;;;;;;;;5044235;28;20193;-65
2023/11/12 05:24:12;;;;;;;13.63;9.40;;;;;;;;;;5052569;28;20177;-66
2023/11/12 05:26:38;;;;;;;14.37;10.67;;;;;;;;;;5053778;28;20649;-66
2023/11/12 05:29:03;;;;;;;14.30;9.30;;;;;;;;;;5028997;28;20169;-66
2023/11/12 05:31:30;;;;;;;14.63;9.70;;;;;;;;;;5052967;28;20197;-66
2023/11/12 05:33:55;;;;;;;12.47;9.20;;;;;;;;;;5054441;28;20205;-66
2023/11/12 05:36:20;;;;;;;14.80;9.70;;;;;;;;;;5052856;28;20196;-66
2023/11/12 05:38:46;;;;;;;10.80;8.87;;;;;;;;;;5049931;28;20207;-66
2023/11/12 05:41:11;;;;;;;14.07;9.93;;;;;;;;;;5054964;28;20211;-66
2023/11/12 05:43:36;;;;;;;17.00;11.53;;;;;;;;;;5053713;28;20273;-67
2023/11/12 05:46:01;;;;;;;16.47;10.90;;;;;;;;;;5053411;28;20644;-66
2023/11/12 05:48:27;;;;;;;16.73;11.43;;;;;;;;;;5055336;28;20173;-66
2023/11/12 05:50:52;;;;;;;15.33;11.20;;;;;;;;;;5053095;28;20198;-65
2023/11/12 05:53:18;;;;;;;17.70;12.10;;;;;;;;;;5051646;28;20206;-65
2023/11/12 05:55:44;;;;;;;16.33;10.83;;;;;;;;;;5052971;28;20232;-65
2023/11/12 05:58:09;;;;;;;17.67;12.27;;;;;;;;;;5047930;28;20676;-65
2023/11/12 06:00:34;;;;;;;22.50;12.80;;;;;;;;;;5051031;28;20185;-65
2023/11/12 06:03:00;;;;;;;20.97;14.03;;;;;;;;;;5049663;28;20178;-65
2023/11/12 06:05:25;;;;;;;27.23;15.73;;;;;;;;;;5050072;28;20168;-65
2023/11/12 06:07:50;;;;;;;21.43;14.10;;;;;;;;;;5050383;28;20171;-65
2023/11/12 06:10:15;;;;;;;23.20;14.90;;;;;;;;;;5048817;28;20726;-66
2023/11/12 06:12:40;;;;;;;31.60;16.83;;;;;;;;;;5055145;28;20288;-65
2023/11/12 06:15:06;;;;;;;24.10;15.20;;;;;;;;;;5055721;28;20276;-66
2023/11/12 06:17:31;;;;;;;30.33;16.53;;;;;;;;;;5054386;28;20177;-65
2023/11/12 06:19:56;;;;;;;25.80;15.63;;;;;;;;;;5055238;28;20592;-66
2023/11/12 06:22:21;;;;;;;24.17;15.47;;;;;;;;;;5050443;28;20191;-65
2023/11/12 06:24:46;;;;;;;26.00;15.37;;;;;;;;;;5053100;28;20235;-65
2023/11/12 06:27:12;;;;;;;24.00;16.13;;;;;;;;;;5047372;28;20181;-65
2023/11/12 06:29:37;;;;;;;29.83;17.20;;;;;;;;;;5051291;28;20205;-66
2023/11/12 06:32:03;;;;;;;27.47;17.17;;;;;;;;;;5053765;28;20197;-66
2023/11/12 06:34:28;;;;;;;30.93;16.87;;;;;;;;;;5048466;28;20258;-66
2023/11/12 06:36:53;;;;;;;24.27;15.30;;;;;;;;;;5049955;28;20173;-65
2023/11/12 06:39:19;;;;;;;23.70;14.50;;;;;;;;;;5051501;28;20268;-66
2023/11/12 06:41:44;;;;;;;26.53;14.97;;;;;;;;;;5052454;28;20542;-64
2023/11/12 06:44:09;;;;;;;22.87;15.63;;;;;;;;;;5053065;28;20177;-64
2023/11/12 06:46:35;;;;;;;19.03;14.20;;;;;;;;;;5048364;28;20181;-64
2023/11/12 06:49:00;;;;;;;20.87;13.83;;;;;;;;;;5049913;28;20335;-65
2023/11/12 06:51:25;;;;;;;22.03;13.57;;;;;;;;;;5050737;28;20194;-65
2023/11/12 06:53:50;;;;;;;21.50;14.63;;;;;;;;;;5050598;28;20200;-65
2023/11/12 06:56:16;;;;;;;23.13;14.67;;;;;;;;;;5051300;28;20396;-67
2023/11/12 06:58:41;;;;;;;25.97;15.83;;;;;;;;;;5032480;28;20664;-65
2023/11/12 07:01:06;;;;;;;26.87;15.03;;;;;;;;;;5029408;28;20210;-65
2023/11/12 07:03:31;;;;;;;23.27;14.90;;;;;;;;;;5050470;28;20182;-65
2023/11/12 07:05:57;;;;;;;24.90;16.37;;;;;;;;;;5049486;28;20656;-65
2023/11/12 07:08:22;;;;;;;19.90;15.37;;;;;;;;;;5052366;28;20569;-66
2023/11/12 07:10:48;;;;;;;25.67;16.03;;;;;;;;;;5050782;28;20677;-65
2023/11/12 07:13:15;;;;;;;20.83;14.20;;;;;;;;;;5051557;28;20209;-66
2023/11/12 07:15:42;;;;;;;22.10;15.23;;;;;;;;;;5051880;28;20180;-65
2023/11/12 07:18:07;;;;;;;19.93;13.67;;;;;;;;;;5046015;28;20273;-65
2023/11/12 07:20:32;;;;;;;25.93;15.63;;;;;;;;;;5047137;28;20311;-65
2023/11/12 07:22:59;;;;;;;22.83;15.47;;;;;;;;;;5051270;28;20563;-65
2023/11/12 07:25:24;;;;;;;21.73;15.53;;;;;;;;;;5051797;28;20176;-65
2023/11/12 07:27:49;;;;;;;26.43;15.23;;;;;;;;;;5050704;28;20182;-66
2023/11/12 07:30:15;;;;;;;21.60;14.20;;;;;;;;;;5051301;28;20178;-66
2023/11/12 07:32:40;;;;;;;19.27;14.90;;;;;;;;;;5032043;28;20278;-66
2023/11/12 07:35:08;;;;;;;21.47;15.20;;;;;;;;;;5052212;28;20231;-66
2023/11/12 07:37:33;;;;;;;22.33;14.80;;;;;;;;;;5049895;28;20201;-66
2023/11/12 07:39:58;;;;;;;24.47;14.33;;;;;;;;;;5043342;28;20728;-65
2023/11/12 07:42:23;;;;;;;20.50;15.10;;;;;;;;;;5059513;28;20204;-65
2023/11/12 07:44:49;;;;;;;21.57;13.87;;;;;;;;;;5051828;28;20695;-65
2023/11/12 07:47:14;;;;;;;19.83;14.00;;;;;;;;;;5032301;28;20198;-65
2023/11/12 07:49:39;;;;;;;25.93;16.00;;;;;;;;;;5049292;28;20619;-65
2023/11/12 07:52:04;;;;;;;21.03;14.93;;;;;;;;;;5047926;28;20244;-66
2023/11/12 07:54:30;;;;;;;18.33;14.30;;;;;;;;;;5050009;28;20206;-66
2023/11/12 07:56:55;;;;;;;20.50;14.03;;;;;;;;;;5034854;28;20176;-65
2023/11/12 07:59:20;;;;;;;19.63;14.10;;;;;;;;;;5050911;28;20185;-65
2023/11/12 08:01:49;;;;;;;22.30;15.63;;;;;;;;;;5048007;28;20291;-67
2023/11/12 08:04:14;;;;;;;21.40;15.47;;;;;;;;;;5045501;28;20598;-67
2023/11/12 08:06:39;;;;;;;19.50;13.93;;;;;;;;;;5045043;28;20176;-65
2023/11/12 08:09:06;;;;;;;19.83;14.20;;;;;;;;;;5046250;28;20640;-67
2023/11/12 08:11:37;;;;;;;21.73;15.30;;;;;;;;;;5050562;28;20696;-66
2023/11/12 08:14:02;;;;;;;21.60;16.23;;;;;;;;;;5054084;28;20201;-67
2023/11/12 08:16:27;;;;;;;20.60;15.63;;;;;;;;;;5037315;28;20238;-66
2023/11/12 08:18:52;;;;;;;18.13;13.50;;;;;;;;;;5049087;28;20722;-67
2023/11/12 08:21:18;;;;;;;23.57;16.33;;;;;;;;;;5050473;28;20212;-67
2023/11/12 08:23:43;;;;;;;23.73;16.80;;;;;;;;;;5050336;28;20200;-67
2023/11/12 08:26:09;;;;;;;19.50;14.43;;;;;;;;;;5051108;28;20863;-67
2023/11/12 08:28:34;;;;;;;24.60;15.50;;;;;;;;;;5051190;28;20197;-67
2023/11/12 08:30:59;;;;;;;22.97;15.67;;;;;;;;;;5052447;28;20684;-66
2023/11/12 08:33:25;;;;;;;25.10;16.87;;;;;;;;;;5050122;28;20741;-68
2023/11/12 08:35:52;;;;;;;20.13;14.57;;;;;;;;;;5036127;28;20223;-67
2023/11/12 08:38:17;;;;;;;24.63;16.07;;;;;;;;;;5053908;28;20265;-66
2023/11/12 08:40:43;;;;;;;22.77;16.53;;;;;;;;;;5054717;28;20287;-67
2023/11/12 08:43:10;;;;;;;24.17;16.70;;;;;;;;;;5050739;28;20598;-67
2023/11/12 08:45:36;;;;;;;26.77;16.83;;;;;;;;;;5044481;28;20170;-67
2023/11/12 08:48:01;;;;;;;22.67;15.73;;;;;;;;;;5050669;28;20251;-67
2023/11/12 08:50:26;;;;;;;27.53;17.63;;;;;;;;;;5048557;28;20189;-67
2023/11/12 08:52:52;;;;;;;27.97;17.20;;;;;;;;;;5046760;28;20322;-67
2023/11/12 08:55:18;;;;;;;22.00;17.10;;;;;;;;;;5047684;28;20201;-67
2023/11/12 08:57:43;;;;;;;19.60;14.30;;;;;;;;;;5048614;28;20589;-67
2023/11/12 09:00:09;;;;;;;21.87;15.10;;;;;;;;;;5031337;28;20304;-67
2023/11/12 09:02:34;;;;;;;25.57;15.87;;;;;;;;;;5050018;28;20258;-67
2023/11/12 09:04:59;;;;;;;27.83;17.00;;;;;;;;;;5046796;28;20231;-67
2023/11/12 09:07:25;;;;;;;24.50;15.87;;;;;;;;;;5026143;28;20178;-67
2023/11/12 09:09:50;;;;;;;21.90;15.40;;;;;;;;;;5045639;28;21841;-67
2023/11/12 09:12:15;;;;;;;22.87;15.33;;;;;;;;;;5029864;28;20218;-67
2023/11/12 09:14:40;;;;;;;25.90;16.10;;;;;;;;;;5050418;28;20334;-67
2023/11/12 09:17:06;;;;;;;24.73;15.53;;;;;;;;;;5048334;28;20185;-67
2023/11/12 09:19:32;;;;;;;24.40;15.83;;;;;;;;;;5050221;28;20173;-67
2023/11/12 09:21:57;;;;;;;22.97;15.77;;;;;;;;;;5050421;28;20204;-67
2023/11/12 09:24:22;;;;;;;26.20;16.90;;;;;;;;;;5050382;28;20195;-67
2023/11/12 09:26:48;;;;;;;24.90;16.07;;;;;;;;;;5042400;28;20188;-67
2023/11/12 09:29:13;;;;;;;23.37;16.73;;;;;;;;;;5048758;28;20632;-67
2023/11/12 09:31:38;;;;;;;28.37;17.27;;;;;;;;;;5048173;28;20201;-67
2023/11/12 09:34:03;;;;;;;25.63;16.53;;;;;;;;;;5049374;28;20197;-67
2023/11/12 09:36:29;;;;;;;30.80;18.20;;;;;;;;;;5032942;28;20180;-67
2023/11/12 09:38:55;;;;;;;32.57;18.47;;;;;;;;;;5051595;28;20212;-67
2023/11/12 09:41:21;;;;;;;29.17;18.77;;;;;;;;;;5032578;28;20205;-67
2023/11/12 09:43:47;;;;;;;30.83;19.73;;;;;;;;;;5052770;28;20196;-67
2023/11/12 09:46:13;;;;;;;29.47;19.50;;;;;;;;;;5048479;28;20190;-67
2023/11/12 09:48:39;;;;;;;25.97;17.93;;;;;;;;;;5050893;28;20268;-67
2023/11/12 09:51:09;;;;;;;25.05;16.67;;;;;;;;;;5050609;28;20638;-67
2023/11/12 09:53:41;;;;;;;21.42;13.50;;;;;;;;;;5033907;28;20581;-67
2023/11/12 09:56:10;;;;;;;20.70;13.43;;;;;;;;;;5051306;28;20261;-67
2023/11/12 09:58:36;;;;;;;18.55;12.82;;;;;;;;;;5050588;28;20174;-67
2023/11/12 10:01:02;;;;;;;18.60;12.10;;;;;;;;;;5050310;28;20696;-67
2023/11/12 10:03:27;;;;;;;15.75;11.65;;;;;;;;;;5048873;28;20192;-67
2023/11/12 10:05:52;;;;;;;18.25;11.77;;;;;;;;;;5047962;28;20182;-67
2023/11/12 10:08:18;;;;;;;19.02;11.15;;;;;;;;;;5050574;28;20178;-67
2023/11/12 10:10:43;;;;;;;19.13;11.75;;;;;;;;;;5053233;28;20201;-67
2023/11/12 10:13:09;;;;;;;17.55;10.85;;;;;;;;;;5054376;28;20177;-68
2023/11/12 10:15:35;;;;;;;20.48;12.25;;;;;;;;;;5053992;28;20178;-67
2023/11/12 10:18:00;;;;;;;19.45;11.63;;;;;;;;;;5052561;28;20671;-67
2023/11/12 10:20:27;;;;;;;17.55;11.70;;;;;;;;;;5051956;28;20188;-67
2023/11/12 10:22:53;;;;;;;25.38;12.88;;;;;;;;;;5056442;28;20189;-67
2023/11/12 10:25:37;;;;;;;24.63;14.35;;;;;;;;;;5053364;28;20170;-67
2023/11/12 10:28:04;;;;;;;21.23;14.65;;;;;;;;;;5055320;28;20174;-67
2023/11/12 10:30:29;;;;;;;21.92;14.13;;;;;;;;;;5053710;28;20660;-67
2023/11/12 10:33:00;;;;;;;23.48;14.95;;;;;;;;;;5054631;28;20193;-67
2023/11/12 10:35:26;;;;;;;27.25;15.65;;;;;;;;;;5053058;28;20652;-67
2023/11/12 10:37:58;;;;;;;24.27;15.27;;;;;;;;;;5053008;28;20192;-67
2023/11/12 10:40:24;;;;;;;26.23;16.13;;;;;;;;;;5051837;28;20178;-67
2023/11/12 10:42:50;;;;;;;24.48;15.32;;;;;;;;;;5052023;28;20180;-67
2023/11/12 10:45:18;;;;;;;25.50;15.63;;;;;;;;;;5051373;28;20182;-67
2023/11/12 10:47:46;;;;;;;24.30;15.15;;;;;;;;;;5053231;28;20182;-67
2023/11/12 10:50:13;;;;;;;26.10;14.98;;;;;;;;;;5052165;28;20223;-67
2023/11/12 10:52:40;;;;;;;25.08;14.73;;;;;;;;;;5049106;28;20205;-67
2023/11/12 10:55:05;;;;;;;24.15;14.88;;;;;;;;;;5053067;28;20251;-67
2023/11/12 10:57:31;;;;;;;24.00;14.20;;;;;;;;;;5053016;28;20182;-67
2023/11/12 10:59:59;;;;;;;26.48;16.67;;;;;;;;;;5053020;28;20692;-67
2023/11/12 11:02:32;;;;;;;24.90;15.93;;;;;;;;;;5049971;28;20201;-67
2023/11/12 11:04:57;;;;;;;27.90;15.30;;;;;;;;;;5051815;28;20563;-67
2023/11/12 11:07:23;;;;;;;30.00;17.77;;;;;;;;;;5048470;28;20189;-67
2023/11/12 11:09:48;;;;;;;34.25;20.67;;;;;;;;;;5052016;28;20709;-67
2023/11/12 11:12:14;;;;;;;31.93;19.10;;;;;;;;;;5052018;28;20243;-67
2023/11/12 11:14:39;;;;;;;41.77;19.97;;;;;;;;;;5052440;28;20255;-67
2023/11/12 11:17:08;;;;;;;43.87;26.70;;;;;;;;;;5052864;28;20582;-67
2023/11/12 11:19:48;;;;;;;51.77;27.17;;;;;;;;;;5033700;28;20619;-67
2023/11/12 11:22:26;;;;;;;71.57;38.80;;;;;;;;;;5054027;28;20683;-67
2023/11/12 11:24:52;;;;;;;45.47;23.90;;;;;;;;;;5048423;28;20655;-67
2023/11/12 11:27:19;;;;;;;39.83;21.83;;;;;;;;;;5052350;28;20211;-67
2023/11/12 11:30:03;;;;;;;31.20;17.67;;;;;;;;;;5052341;28;20193;-67
2023/11/12 11:32:29;;;;;;;26.07;14.63;;;;;;;;;;5052216;28;20193;-67
2023/11/12 11:34:54;;;;;;;21.23;12.53;;;;;;;;;;5053297;28;20711;-67
2023/11/12 11:37:21;;;;;;;16.93;12.20;;;;;;;;;;5053637;28;20737;-67
2023/11/12 11:39:47;;;;;;;14.87;10.10;;;;;;;;;;5052240;28;20719;-67
2023/11/12 11:42:12;;;;;;;14.57;10.13;;;;;;;;;;5057211;28;20185;-67
2023/11/12 11:44:37;;;;;;;18.73;9.90;;;;;;;;;;5050678;28;20193;-67
2023/11/12 11:47:16;;;;;;;14.93;10.27;;;;;;;;;;5038020;28;20172;-68
2023/11/12 11:49:42;;;;;;;19.90;12.00;;;;;;;;;;5050067;28;20679;-67
2023/11/12 11:52:08;;;;;;;18.57;10.20;;;;;;;;;;5055261;28;20197;-67
2023/11/12 11:54:33;;;;;;;17.40;11.30;;;;;;;;;;5053222;28;20262;-67
2023/11/12 11:57:00;;;;;;;14.20;9.60;;;;;;;;;;5034926;28;20677;-67
2023/11/12 11:59:25;;;;;;;14.13;9.93;;;;;;;;;;5050619;28;20547;-67
2023/11/12 12:01:53;;;;;;;15.23;11.17;;;;;;;;;;5050042;28;20210;-67
2023/11/12 12:04:18;;;;;;;12.87;8.97;;;;;;;;;;5050522;28;20186;-67
2023/11/12 12:06:44;;;;;;;14.33;9.00;;;;;;;;;;5052590;28;20177;-67
2023/11/12 12:09:16;;;;;;;17.13;9.83;;;;;;;;;;5045741;28;20215;-67
2023/11/12 12:11:42;;;;;;;14.70;8.70;;;;;;;;;;5046153;28;20204;-67
2023/11/12 12:14:09;;;;;;;14.83;9.97;;;;;;;;;;5052975;28;20292;-67
2023/11/12 12:16:34;;;;;;;14.33;9.90;;;;;;;;;;5051405;28;20181;-67
2023/11/12 12:19:01;;;;;;;16.47;9.77;;;;;;;;;;5034021;28;20235;-67
2023/11/12 12:21:26;;;;;;;16.53;8.87;;;;;;;;;;5052463;28;20198;-67
2023/11/12 12:23:51;;;;;;;13.70;8.70;;;;;;;;;;5049871;28;20196;-67
2023/11/12 12:26:17;;;;;;;12.87;8.90;;;;;;;;;;5051777;28;20181;-67
2023/11/12 12:28:42;;;;;;;18.43;9.60;;;;;;;;;;5033914;28;20177;-67
2023/11/12 12:31:08;;;;;;;14.60;9.17;;;;;;;;;;5051157;28;20229;-67
2023/11/12 12:33:35;;;;;;;15.17;9.20;;;;;;;;;;5053428;28;20244;-67
2023/11/12 12:36:08;;;;;;;12.47;8.80;;;;;;;;;;5054201;28;20185;-67
2023/11/12 12:38:34;;;;;;;14.40;8.43;;;;;;;;;;5049222;28;20182;-67
2023/11/12 12:40:59;;;;;;;15.27;8.43;;;;;;;;;;5048236;28;20189;-68
2023/11/12 12:43:24;;;;;;;11.53;7.40;;;;;;;;;;5051466;28;20684;-67
2023/11/12 12:45:56;;;;;;;16.60;9.43;;;;;;;;;;5033167;28;20717;-67
2023/11/12 12:48:23;;;;;;;12.67;8.40;;;;;;;;;;5037589;28;20180;-67
2023/11/12 12:51:02;;;;;;;11.60;7.10;;;;;;;;;;5049109;28;20688;-67
2023/11/12 12:53:30;;;;;;;16.67;8.90;;;;;;;;;;5049087;28;20223;-67
2023/11/12 12:55:55;;;;;;;13.40;8.30;;;;;;;;;;5050106;28;20216;-67
2023/11/12 12:58:22;;;;;;;10.53;7.20;;;;;;;;;;5045310;28;20213;-67
2023/11/12 13:00:48;;;;;;;12.27;7.83;;;;;;;;;;5050776;28;20209;-67
2023/11/12 13:03:33;;;;;;;14.77;8.80;;;;;;;;;;5050276;28;20185;-67
2023/11/12 13:05:59;;;;;;;14.07;8.97;;;;;;;;;;5047214;28;20181;-67
2023/11/12 13:08:25;;;;;;;13.70;8.93;;;;;;;;;;5049342;28;20657;-67
2023/11/12 13:10:50;;;;;;;11.57;8.07;;;;;;;;;;5050138;28;20205;-67
2023/11/12 13:13:19;;;;;;;17.00;9.57;;;;;;;;;;5050013;28;20181;-67
2023/11/12 13:15:46;;;;;;;14.00;9.20;;;;;;;;;;5053977;28;20177;-67
2023/11/12 13:18:12;;;;;;;13.47;8.50;;;;;;;;;;5047175;28;20265;-67
2023/11/12 13:20:38;;;;;;;19.27;9.47;;;;;;;;;;5052656;28;20272;-67
2023/11/12 13:23:03;;;;;;;14.53;9.47;;;;;;;;;;5055621;28;20666;-67
2023/11/12 13:25:29;;;;;;;16.33;9.70;;;;;;;;;;5050809;28;20236;-67
2023/11/12 13:27:54;;;;;;;15.57;8.53;;;;;;;;;;5038543;28;20177;-67
2023/11/12 13:30:20;;;;;;;15.77;9.43;;;;;;;;;;5050256;28;20173;-67
2023/11/12 13:32:46;;;;;;;14.77;8.87;;;;;;;;;;5054529;28;20565;-67
2023/11/12 13:35:12;;;;;;;21.93;10.60;;;;;;;;;;5055992;28;20205;-67
2023/11/12 13:37:38;;;;;;;17.43;9.43;;;;;;;;;;5049391;28;20659;-67
2023/11/12 13:40:05;;;;;;;16.07;9.67;;;;;;;;;;5049892;28;20170;-67
2023/11/12 13:42:32;;;;;;;18.97;9.83;;;;;;;;;;5056962;28;20641;-67
2023/11/12 13:44:57;;;;;;;16.63;10.37;;;;;;;;;;5053168;28;20177;-67
2023/11/12 13:47:23;;;;;;;24.13;10.90;;;;;;;;;;5053799;28;20660;-67
2023/11/12 13:49:48;;;;;;;18.77;10.30;;;;;;;;;;5062693;28;20178;-66
2023/11/12 13:52:17;;;;;;;23.10;11.10;;;;;;;;;;5051650;28;20756;-67
2023/11/12 13:54:42;;;;;;;18.13;11.23;;;;;;;;;;5049716;28;20229;-66
2023/11/12 13:57:09;;;;;;;18.30;10.47;;;;;;;;;;5052446;28;20616;-66
2023/11/12 13:59:34;;;;;;;21.53;11.53;;;;;;;;;;5051387;28;20232;-66
2023/11/12 14:01:59;;;;;;;20.63;12.27;;;;;;;;;;5054379;28;20213;-66
2023/11/12 14:04:25;;;;;;;17.33;10.60;;;;;;;;;;5057970;28;20540;-66
2023/11/12 14:06:52;;;;;;;17.67;10.20;;;;;;;;;;5054113;28;20217;-66
2023/11/12 14:09:17;;;;;;;24.33;11.40;;;;;;;;;;5053955;28;20661;-66
2023/11/12 14:11:43;;;;;;;25.90;11.33;;;;;;;;;;5035546;28;20236;-66
2023/11/12 14:14:08;;;;;;;19.60;10.43;;;;;;;;;;5049978;28;20213;-66
2023/11/12 14:16:36;;;;;;;22.07;11.17;;;;;;;;;;5052940;28;20198;-66
2023/11/12 14:19:01;;;;;;;17.73;10.77;;;;;;;;;;5052593;28;20650;-65